createdAt,value
2018-06-30T01:40:26.129Z,0
2018-06-30T02:04:51.554Z,3
2018-06-30T02:14:52.213Z,7
2018-06-30T02:19:22.470Z,10
2018-06-30T02:21:52.617Z,13
2018-06-30T02:23:53.291Z,17
2018-06-30T02:25:23.394Z,20
2018-06-30T02:26:53.491Z,23
2018-06-30T02:27:53.508Z,27
2018-06-30T02:28:53.589Z,30
2018-06-30T02:29:53.612Z,33
2018-06-30T02:30:53.759Z,37
2018-06-30T02:31:23.713Z,40
2018-06-30T02:32:23.784Z,43
2018-06-30T02:32:53.806Z,47
2018-06-30T02:33:23.832Z,50
2018-06-30T02:33:53.947Z,53
2018-06-30T02:34:23.897Z,57
2018-06-30T02:34:53.924Z,60
2018-06-30T02:35:23.978Z,63
2018-06-30T02:35:54.067Z,67
2018-06-30T02:36:24.032Z,70
2018-06-30T02:36:54.047Z,73
2018-06-30T02:37:24.075Z,77
2018-06-30T02:37:54.108Z,83
2018-06-30T02:38:24.163Z,87
2018-06-30T02:38:54.289Z,93
2018-06-30T02:39:24.210Z,97
2018-06-30T02:39:54.247Z,103
2018-06-30T02:40:24.277Z,110
2018-06-30T02:40:54.303Z,117
2018-06-30T02:41:24.361Z,120
2018-06-30T02:41:54.400Z,130
2018-06-30T02:42:24.416Z,137
2018-06-30T02:42:54.445Z,143
2018-06-30T02:43:24.519Z,150
2018-06-30T02:43:54.565Z,157
2018-06-30T02:44:24.513Z,167
2018-06-30T02:44:54.595Z,173
2018-06-30T02:45:24.570Z,183
2018-06-30T02:45:54.652Z,193
2018-06-30T02:46:24.665Z,203
2018-06-30T02:46:55.617Z,213
2018-06-30T02:47:25.666Z,220
2018-06-30T02:47:55.660Z,230
2018-06-30T02:48:25.791Z,240
2018-06-30T02:48:55.729Z,253
2018-06-30T02:49:25.750Z,267
2018-06-30T02:49:55.816Z,277
2018-06-30T02:50:25.856Z,290
2018-06-30T02:50:55.843Z,303
2018-06-30T02:51:25.884Z,317
2018-06-30T02:51:55.916Z,333
2018-06-30T02:52:25.947Z,347
2018-06-30T02:52:55.972Z,360
2018-06-30T02:53:26.058Z,377
2018-06-30T02:53:56.109Z,393
2018-06-30T02:54:26.061Z,410
2018-06-30T02:54:56.098Z,427
2018-06-30T02:55:26.127Z,440
2018-06-30T02:55:56.154Z,457
2018-06-30T02:56:26.222Z,477
2018-06-30T02:56:56.212Z,493
2018-06-30T02:57:26.286Z,513
2018-06-30T02:57:56.335Z,533
2018-06-30T02:58:26.383Z,553
2018-06-30T02:58:56.348Z,573
2018-06-30T02:59:26.413Z,593
2018-06-30T02:59:56.440Z,617
2018-06-30T03:00:26.495Z,637
2018-06-30T03:00:56.487Z,657
2018-06-30T03:01:26.565Z,680
2018-06-30T03:01:56.561Z,703
2018-06-30T03:02:26.622Z,727
2018-06-30T03:02:56.616Z,750
2018-06-30T03:03:26.718Z,773
2018-06-30T03:03:56.711Z,800
2018-06-30T03:04:26.760Z,827
2018-06-30T03:04:56.704Z,850
2018-06-30T03:05:26.799Z,873
2018-06-30T03:05:56.767Z,900
2018-06-30T03:06:26.828Z,927
2018-06-30T03:06:56.846Z,953
2018-06-30T03:07:26.861Z,980
2018-06-30T03:07:56.908Z,1010
2018-06-30T03:08:26.981Z,1037
2018-06-30T03:08:57.033Z,1067
2018-06-30T03:09:26.987Z,1093
2018-06-30T03:09:57.023Z,1120
2018-06-30T03:10:27.058Z,1150
2018-06-30T03:10:57.076Z,1180
2018-06-30T03:11:27.149Z,1210
2018-06-30T03:11:57.132Z,1240
2018-06-30T03:12:27.187Z,1270
2018-06-30T03:12:57.220Z,1297
2018-06-30T03:13:27.318Z,1330
2018-06-30T03:13:57.276Z,1360
2018-06-30T03:14:27.328Z,1390
2018-06-30T03:14:57.357Z,1423
2018-06-30T03:15:27.429Z,1453
2018-06-30T03:15:57.377Z,1487
2018-06-30T03:16:27.424Z,1513
2018-06-30T03:16:57.483Z,1547
2018-06-30T03:17:27.539Z,1580
2018-06-30T03:17:57.553Z,1610
2018-06-30T03:18:27.601Z,1643
2018-06-30T03:18:57.613Z,1677
2018-06-30T03:19:27.589Z,1707
2018-06-30T03:19:57.692Z,1737
2018-06-30T03:20:27.675Z,1770
2018-06-30T03:20:57.714Z,1803
2018-06-30T03:21:27.781Z,1837
2018-06-30T03:21:57.805Z,1870
2018-06-30T03:22:27.859Z,1903
2018-06-30T03:22:57.863Z,1933
2018-06-30T03:23:27.925Z,1967
2018-06-30T03:23:57.983Z,1997
2018-06-30T03:24:27.926Z,2033
2018-06-30T03:24:57.985Z,2063
2018-06-30T03:25:28.005Z,2097
2018-06-30T03:25:58.046Z,2130
2018-06-30T03:26:28.072Z,2160
2018-06-30T03:26:58.131Z,2193
2018-06-30T03:27:28.125Z,2227
2018-06-30T03:27:58.178Z,2260
2018-06-30T03:28:28.212Z,2293
2018-06-30T03:28:58.264Z,2327
2018-06-30T03:29:28.246Z,2357
2018-06-30T03:29:58.312Z,2387
2018-06-30T03:30:28.320Z,2420
2018-06-30T03:30:58.364Z,2453
2018-06-30T03:31:28.443Z,2487
2018-06-30T03:31:58.420Z,2520
2018-06-30T03:32:28.441Z,2553
2018-06-30T03:32:58.444Z,2580
2018-06-30T03:33:28.577Z,2613
2018-06-30T03:33:58.577Z,2643
2018-06-30T03:34:28.531Z,2677
2018-06-30T03:34:58.571Z,2710
2018-06-30T03:35:28.625Z,2740
2018-06-30T03:36:04.729Z,2773
2018-06-30T03:36:28.702Z,2800
2018-06-30T03:36:58.710Z,2830
2018-06-30T03:37:28.711Z,2863
2018-06-30T03:37:58.748Z,2893
2018-06-30T03:38:28.854Z,2927
2018-06-30T03:38:58.879Z,2957
2018-06-30T03:39:28.919Z,2987
2018-06-30T03:39:58.863Z,3017
2018-06-30T03:40:28.896Z,3047
2018-06-30T03:40:58.922Z,3080
2018-06-30T03:41:28.964Z,3110
2018-06-30T03:41:58.982Z,3143
2018-06-30T03:42:29.014Z,3173
2018-06-30T03:42:59.089Z,3200
2018-06-30T03:43:29.098Z,3230
2018-06-30T03:43:59.106Z,3260
2018-06-30T03:44:29.172Z,3293
2018-06-30T03:44:59.179Z,3323
2018-06-30T03:45:29.245Z,3353
2018-06-30T03:45:59.282Z,3383
2018-06-30T03:46:29.308Z,3410
2018-06-30T03:46:59.292Z,3437
2018-06-30T03:47:29.420Z,3467
2018-06-30T03:47:59.417Z,3493
2018-06-30T03:48:29.393Z,3523
2018-06-30T03:48:59.495Z,3550
2018-06-30T03:49:29.504Z,3580
2018-06-30T03:49:59.536Z,3607
2018-06-30T03:50:29.553Z,3630
2018-06-30T03:50:59.565Z,3657
2018-06-30T03:51:29.631Z,3687
2018-06-30T03:51:59.679Z,3710
2018-06-30T03:52:29.669Z,3740
2018-06-30T03:52:59.682Z,3767
2018-06-30T03:53:29.718Z,3793
2018-06-30T03:53:59.779Z,3820
2018-06-30T03:54:29.755Z,3840
2018-06-30T03:54:59.829Z,3867
2018-06-30T03:55:29.816Z,3893
2018-06-30T03:55:59.854Z,3920
2018-06-30T03:56:29.879Z,3943
2018-06-30T03:56:59.917Z,3967
2018-06-30T03:57:29.944Z,3993
2018-06-30T03:57:59.972Z,4017
2018-06-30T03:58:29.999Z,4040
2018-06-30T03:59:00.049Z,4060
2018-06-30T03:59:30.114Z,4087
2018-06-30T04:00:00.175Z,4110
2018-06-30T04:00:30.136Z,4133
2018-06-30T04:01:00.216Z,4157
2018-06-30T04:01:30.187Z,4180
2018-06-30T04:02:01.067Z,4203
2018-06-30T04:02:30.259Z,4227
2018-06-30T04:03:00.900Z,4250
2018-06-30T04:03:30.357Z,4267
2018-06-30T04:04:01.519Z,4290
2018-06-30T04:04:30.435Z,4313
2018-06-30T04:05:01.585Z,4333
2018-06-30T04:05:30.449Z,4357
2018-06-30T04:06:00.951Z,4380
2018-06-30T04:06:30.575Z,4400
2018-06-30T04:07:00.966Z,4423
2018-06-30T04:07:30.609Z,4443
2018-06-30T04:08:01.328Z,4467
2018-06-30T04:08:30.652Z,4483
2018-06-30T04:09:01.609Z,4503
2018-06-30T04:09:30.702Z,4527
2018-06-30T04:10:00.897Z,4547
2018-06-30T04:10:30.774Z,4567
2018-06-30T04:11:00.811Z,4587
2018-06-30T04:11:30.869Z,4607
2018-06-30T04:12:01.560Z,4630
2018-06-30T04:12:30.881Z,4650
2018-06-30T04:13:00.948Z,4670
2018-06-30T04:13:30.958Z,4690
2018-06-30T04:14:01.241Z,4707
2018-06-30T04:14:31.056Z,4723
2018-06-30T04:15:01.073Z,4743
2018-06-30T04:15:31.091Z,4767
2018-06-30T04:16:01.514Z,4783
2018-06-30T04:16:31.134Z,4803
2018-06-30T04:17:01.132Z,4823
2018-06-30T04:17:31.256Z,4840
2018-06-30T04:18:02.211Z,4860
2018-06-30T04:18:31.289Z,4877
2018-06-30T04:19:01.642Z,4897
2018-06-30T04:19:31.333Z,4910
2018-06-30T04:20:01.827Z,4930
2018-06-30T04:20:31.423Z,4947
2018-06-30T04:21:01.377Z,4967
2018-06-30T04:21:31.452Z,4983
2018-06-30T04:22:01.494Z,5003
2018-06-30T04:22:31.523Z,5020
2018-06-30T04:23:01.517Z,5037
2018-06-30T04:23:31.578Z,5053
2018-06-30T04:24:01.564Z,5070
2018-06-30T04:24:31.671Z,5087
2018-06-30T04:25:01.688Z,5107
2018-06-30T04:25:31.689Z,5120
2018-06-30T04:26:01.708Z,5137
2018-06-30T04:26:31.757Z,5153
2018-06-30T04:27:01.799Z,5170
2018-06-30T04:27:31.805Z,5190
2018-06-30T04:28:01.884Z,5207
2018-06-30T04:28:31.871Z,5223
2018-06-30T04:29:01.874Z,5243
2018-06-30T04:29:31.909Z,5260
2018-06-30T04:30:02.022Z,5273
2018-06-30T04:30:31.964Z,5293
2018-06-30T04:31:01.998Z,5310
2018-06-30T04:31:32.042Z,5323
2018-06-30T04:32:02.055Z,5337
2018-06-30T04:32:32.120Z,5350
2018-06-30T04:33:02.124Z,5370
2018-06-30T04:33:32.153Z,5387
2018-06-30T04:34:02.283Z,5403
2018-06-30T04:34:32.227Z,5417
2018-06-30T04:35:02.345Z,5433
2018-06-30T04:35:32.363Z,5450
2018-06-30T04:36:02.355Z,5467
2018-06-30T04:36:32.378Z,5480
2018-06-30T04:37:02.389Z,5497
2018-06-30T04:37:32.443Z,5513
2018-06-30T04:38:02.461Z,5530
2018-06-30T04:38:32.507Z,5543
2018-06-30T04:39:02.510Z,5553
2018-06-30T04:39:32.530Z,5567
2018-06-30T04:40:02.610Z,5580
2018-06-30T04:40:32.605Z,5593
2018-06-30T04:41:02.651Z,5610
2018-06-30T04:41:32.651Z,5623
2018-06-30T04:42:02.694Z,5640
2018-06-30T04:42:32.725Z,5650
2018-06-30T04:43:02.767Z,5667
2018-06-30T04:43:32.763Z,5680
2018-06-30T04:44:02.827Z,5690
2018-06-30T04:44:32.830Z,5707
2018-06-30T04:45:02.886Z,5720
2018-06-30T04:45:32.904Z,5733
2018-06-30T04:46:02.990Z,5750
2018-06-30T04:46:32.966Z,5760
2018-06-30T04:47:02.983Z,5777
2018-06-30T04:47:33.011Z,5793
2018-06-30T04:48:03.055Z,5807
2018-06-30T04:48:33.486Z,5820
2018-06-30T04:49:03.492Z,5837
2018-06-30T04:49:33.521Z,5853
2018-06-30T04:50:03.614Z,5863
2018-06-30T04:50:33.576Z,5877
2018-06-30T04:51:03.776Z,5893
2018-06-30T04:51:33.644Z,5903
2018-06-30T04:52:03.685Z,5920
2018-06-30T04:52:33.739Z,5933
2018-06-30T04:53:03.699Z,5947
2018-06-30T04:53:33.851Z,5963
2018-06-30T04:54:03.805Z,5973
2018-06-30T04:54:33.854Z,5987
2018-06-30T04:55:03.969Z,6003
2018-06-30T04:55:33.914Z,6013
2018-06-30T04:56:03.967Z,6023
2018-06-30T04:56:33.961Z,6040
2018-06-30T04:57:04.025Z,6053
2018-06-30T04:57:34.039Z,6067
2018-06-30T04:58:04.060Z,6080
2018-06-30T04:58:34.040Z,6090
2018-06-30T04:59:04.121Z,6110
2018-06-30T04:59:34.139Z,6123
2018-06-30T05:00:04.180Z,6140
2018-06-30T05:00:34.241Z,6153
2018-06-30T05:01:04.261Z,6167
2018-06-30T05:01:34.272Z,6180
2018-06-30T05:02:04.347Z,6193
2018-06-30T05:02:34.332Z,6200
2018-06-30T05:03:04.367Z,6213
2018-06-30T05:03:34.388Z,6227
2018-06-30T05:04:04.387Z,6243
2018-06-30T05:04:34.494Z,6257
2018-06-30T05:05:04.487Z,6467
2018-06-30T05:05:34.496Z,8290
2018-06-30T05:06:04.608Z,12740
2018-06-30T05:06:34.567Z,17190
2018-06-30T05:07:04.614Z,20163
2018-06-30T05:07:34.612Z,22523
2018-06-30T05:08:04.663Z,21807
2018-06-30T05:08:34.654Z,27880
2018-06-30T05:09:04.683Z,28863
2018-06-30T05:09:34.717Z,29507
2018-06-30T05:10:04.768Z,29697
2018-06-30T05:10:34.827Z,29873
2018-06-30T05:11:04.830Z,30010
2018-06-30T05:11:34.895Z,30203
2018-06-30T05:12:04.866Z,30357
2018-06-30T05:12:34.893Z,30533
2018-06-30T05:13:04.929Z,30810
2018-06-30T05:13:34.962Z,28133
2018-06-30T05:14:05.014Z,29443
2018-06-30T05:14:35.021Z,26523
2018-06-30T05:15:05.096Z,25257
2018-06-30T05:15:35.086Z,20923
2018-06-30T05:16:05.167Z,18770
2018-06-30T05:16:35.145Z,18563
2018-06-30T05:17:05.228Z,20157
2018-06-30T05:17:35.258Z,19887
2018-06-30T05:18:05.261Z,19520
2018-06-30T05:18:35.313Z,19073
2018-06-30T05:19:05.327Z,18210
2018-06-30T05:19:35.331Z,15127
2018-06-30T05:20:05.417Z,14240
2018-06-30T05:20:35.441Z,12790
2018-06-30T05:21:05.516Z,10757
2018-06-30T05:21:35.499Z,11290
2018-06-30T05:22:05.501Z,10333
2018-06-30T05:22:35.660Z,13550
2018-06-30T05:23:05.609Z,15297
2018-06-30T05:23:35.590Z,15070
2018-06-30T05:24:05.631Z,12540
2018-06-30T05:24:35.636Z,13327
2018-06-30T05:25:05.736Z,10963
2018-06-30T05:25:35.750Z,8930
2018-06-30T05:26:05.771Z,9473
2018-06-30T05:26:35.762Z,9590
2018-06-30T05:27:05.794Z,9107
2018-06-30T05:27:35.875Z,7587
2018-06-30T05:28:05.855Z,9863
2018-06-30T05:28:35.903Z,7747
2018-06-30T05:29:05.915Z,8333
2018-06-30T05:29:36.090Z,9973
2018-06-30T05:30:05.978Z,13767
2018-06-30T05:30:36.008Z,11737
2018-06-30T05:31:06.060Z,12950
2018-06-30T05:31:36.079Z,13287
2018-06-30T05:32:06.124Z,12917
2018-06-30T05:32:36.147Z,10590
2018-06-30T05:33:06.166Z,10143
2018-06-30T05:33:36.281Z,8733
2018-06-30T05:34:06.287Z,8197
2018-06-30T05:34:36.258Z,8070
2018-06-30T05:35:06.332Z,7457
2018-06-30T05:35:36.349Z,7630
2018-06-30T05:36:06.409Z,8853
2018-06-30T05:36:36.463Z,9387
2018-06-30T05:37:06.502Z,9207
2018-06-30T05:37:36.480Z,9090
2018-06-30T05:38:06.537Z,9627
2018-06-30T05:38:36.535Z,9530
2018-06-30T05:39:06.576Z,9143
2018-06-30T05:39:36.596Z,8233
2018-06-30T05:40:06.723Z,8337
2018-06-30T05:40:36.693Z,7587
2018-06-30T05:41:06.776Z,7703
2018-06-30T05:41:36.770Z,7810
2018-06-30T05:42:06.757Z,7543
2018-06-30T05:42:36.802Z,7343
2018-06-30T05:43:06.822Z,7687
2018-06-30T05:43:36.881Z,7670
2018-06-30T05:44:06.891Z,7530
2018-06-30T05:44:36.905Z,7650
2018-06-30T05:45:06.956Z,9153
2018-06-30T05:45:36.956Z,10137
2018-06-30T05:46:07.030Z,11600
2018-06-30T05:46:37.053Z,13560
2018-06-30T05:47:07.070Z,12377
2018-06-30T05:47:37.189Z,10010
2018-06-30T05:48:07.143Z,9363
2018-06-30T05:48:37.157Z,8190
2018-06-30T05:49:07.177Z,7907
2018-06-30T05:49:37.218Z,8460
2018-06-30T05:50:07.268Z,8577
2018-06-30T05:50:37.275Z,8233
2018-06-30T05:51:07.315Z,8140
2018-06-30T05:51:37.399Z,8070
2018-06-30T05:52:07.416Z,11267
2018-06-30T05:52:37.407Z,12517
2018-06-30T05:53:07.415Z,15013
2018-06-30T05:53:37.467Z,15770
2018-06-30T05:54:07.468Z,14563
2018-06-30T05:54:37.524Z,12520
2018-06-30T05:55:07.600Z,11077
2018-06-30T05:55:37.579Z,10873
2018-06-30T05:56:07.576Z,8033
2018-06-30T05:56:37.640Z,7527
2018-06-30T05:57:07.675Z,7287
2018-06-30T05:57:37.672Z,7390
2018-06-30T05:58:07.802Z,8087
2018-06-30T05:58:37.770Z,8813
2018-06-30T05:59:07.765Z,8050
2018-06-30T05:59:37.858Z,8677
2018-06-30T06:00:07.824Z,8437
2018-06-30T06:00:37.852Z,8467
2018-06-30T06:01:07.887Z,10260
2018-06-30T06:01:37.988Z,10317
2018-06-30T06:02:07.946Z,11153
2018-06-30T06:02:37.996Z,10403
2018-06-30T06:03:08.012Z,8767
2018-06-30T06:03:38.053Z,8870
2018-06-30T06:04:08.077Z,8200
2018-06-30T06:04:38.120Z,7540
2018-06-30T06:05:08.186Z,7440
2018-06-30T06:05:38.209Z,7627
2018-06-30T06:06:08.241Z,7400
2018-06-30T06:06:38.330Z,7457
2018-06-30T06:07:08.297Z,7467
2018-06-30T06:07:38.310Z,7847
2018-06-30T06:08:08.335Z,7863
2018-06-30T06:08:38.388Z,7487
2018-06-30T06:09:08.383Z,7500
2018-06-30T06:09:38.545Z,8457
2018-06-30T06:10:08.520Z,7407
2018-06-30T06:10:38.540Z,7813
2018-06-30T06:11:08.509Z,7630
2018-06-30T06:11:38.629Z,7887
2018-06-30T06:12:08.593Z,8093
2018-06-30T06:12:38.641Z,7540
2018-06-30T06:13:08.690Z,7460
2018-06-30T06:13:38.735Z,7443
2018-06-30T06:14:08.719Z,7467
2018-06-30T06:14:38.713Z,7463
2018-06-30T06:15:08.782Z,7490
2018-06-30T06:15:38.789Z,7480
2018-06-30T06:16:08.809Z,7473
2018-06-30T06:16:38.910Z,7683
2018-06-30T06:17:08.899Z,7523
2018-06-30T06:17:38.903Z,7513
2018-06-30T06:18:09.002Z,7573
2018-06-30T06:18:38.987Z,7600
2018-06-30T06:19:09.029Z,8890
2018-06-30T06:19:39.030Z,8750
2018-06-30T06:20:09.093Z,8243
2018-06-30T06:20:39.105Z,7567
2018-06-30T06:21:09.168Z,8563
2018-06-30T06:21:39.238Z,12303
2018-06-30T06:22:09.203Z,12010
2018-06-30T06:22:39.274Z,11450
2018-06-30T06:23:09.283Z,10393
2018-06-30T06:23:39.297Z,14750
2018-06-30T06:24:09.299Z,27883
2018-06-30T06:24:39.412Z,19973
2018-06-30T06:25:09.394Z,15280
2018-06-30T06:25:39.483Z,33980
2018-06-30T06:26:09.503Z,30163
2018-06-30T06:26:39.746Z,11733
2018-06-30T06:27:09.555Z,9333
2018-06-30T06:27:39.553Z,8677
2018-06-30T06:28:09.623Z,7907
2018-06-30T06:29:09.661Z,7873
2018-06-30T06:29:39.706Z,7723
2018-06-30T06:30:09.709Z,8460
2018-06-30T06:30:39.781Z,7770
2018-06-30T06:31:09.772Z,8450
2018-06-30T06:31:39.847Z,7843
2018-06-30T06:32:09.794Z,8653
2018-06-30T06:32:39.960Z,8187
2018-06-30T06:33:09.907Z,9767
2018-06-30T06:33:39.941Z,8410
2018-06-30T06:34:09.977Z,8240
2018-06-30T06:34:39.991Z,7793
2018-06-30T06:35:10.038Z,8567
2018-06-30T06:35:40.075Z,7873
2018-06-30T06:36:10.125Z,7927
2018-06-30T06:36:40.140Z,7820
2018-06-30T06:37:10.145Z,7803
2018-06-30T06:37:40.179Z,7817
2018-06-30T06:38:10.205Z,7810
2018-06-30T06:38:40.249Z,7833
2018-06-30T06:39:10.296Z,7830
2018-06-30T06:39:40.313Z,7840
2018-06-30T06:40:10.357Z,7853
2018-06-30T06:40:40.455Z,7867
2018-06-30T06:41:10.426Z,7913
2018-06-30T06:41:40.465Z,7890
2018-06-30T06:42:10.491Z,7907
2018-06-30T06:43:10.549Z,7903
2018-06-30T06:43:40.509Z,7927
2018-06-30T06:44:10.603Z,7973
2018-06-30T06:44:40.570Z,7960
2018-06-30T06:45:10.626Z,7887
2018-06-30T06:45:40.624Z,8113
2018-06-30T06:46:10.688Z,10133
2018-06-30T06:46:40.700Z,8223
2018-06-30T06:47:10.759Z,7937
2018-06-30T06:47:40.808Z,7967
2018-06-30T06:48:10.789Z,7950
2018-06-30T06:48:40.811Z,7973
2018-06-30T06:49:10.851Z,7963
2018-06-30T06:50:10.902Z,8057
2018-06-30T06:50:40.940Z,7957
2018-06-30T06:51:10.968Z,7973
2018-06-30T06:51:41.030Z,8017
2018-06-30T06:52:11.032Z,7957
2018-06-30T06:52:41.060Z,7997
2018-06-30T06:53:11.110Z,7990
2018-06-30T06:53:41.198Z,8063
2018-06-30T06:54:11.151Z,8000
2018-06-30T06:54:41.245Z,8040
2018-06-30T06:55:11.278Z,8047
2018-06-30T06:55:41.308Z,8040
2018-06-30T06:56:11.359Z,8047
2018-06-30T06:56:41.356Z,8063
2018-06-30T06:57:11.365Z,8070
2018-06-30T06:57:41.517Z,8083
2018-06-30T06:58:11.417Z,8077
2018-06-30T06:58:41.517Z,8090
2018-06-30T06:59:41.510Z,8077
2018-06-30T07:00:11.584Z,8050
2018-06-30T07:00:41.632Z,8077
2018-06-30T07:01:11.612Z,8090
2018-06-30T07:01:41.618Z,8100
2018-06-30T07:02:11.733Z,8103
2018-06-30T07:02:41.687Z,8100
2018-06-30T07:03:11.816Z,8153
2018-06-30T07:03:41.791Z,10537
2018-06-30T07:04:11.778Z,8230
2018-06-30T07:04:41.833Z,8187
2018-06-30T07:05:11.847Z,8397
2018-06-30T07:05:41.880Z,8437
2018-06-30T07:06:11.901Z,8327
2018-06-30T07:06:41.925Z,8220
2018-06-30T07:07:11.967Z,10260
2018-06-30T07:07:42.013Z,25877
2018-06-30T07:08:12.011Z,11267
2018-06-30T07:08:42.047Z,27453
2018-06-30T07:09:12.144Z,28533
2018-06-30T07:09:42.113Z,17183
2018-06-30T07:10:12.161Z,15610
2018-06-30T07:10:42.170Z,15330
2018-06-30T07:11:12.258Z,14323
2018-06-30T07:11:42.230Z,8367
2018-06-30T07:12:12.487Z,8410
2018-06-30T07:12:42.318Z,9570
2018-06-30T07:13:12.362Z,8343
2018-06-30T07:13:42.390Z,8513
2018-06-30T07:14:12.402Z,8517
2018-06-30T07:14:42.451Z,8407
2018-06-30T07:15:12.496Z,8320
2018-06-30T07:15:42.518Z,8893
2018-06-30T07:16:12.739Z,11163
2018-06-30T07:16:42.576Z,13357
2018-06-30T07:17:12.709Z,9477
2018-06-30T07:17:42.646Z,11560
2018-06-30T07:18:12.761Z,15520
2018-06-30T07:18:42.782Z,10950
2018-06-30T07:19:12.831Z,9283
2018-06-30T07:19:42.858Z,8887
2018-06-30T07:20:12.884Z,9173
2018-06-30T07:20:42.909Z,9547
2018-06-30T07:21:12.921Z,8703
2018-06-30T07:21:42.976Z,9267
2018-06-30T07:22:13.058Z,11307
2018-06-30T07:22:43.037Z,8647
2018-06-30T07:23:13.088Z,8780
2018-06-30T07:23:43.098Z,8723
2018-06-30T07:24:13.137Z,8573
2018-06-30T07:24:43.212Z,9433
2018-06-30T07:25:13.189Z,9277
2018-06-30T07:25:43.220Z,12980
2018-06-30T07:26:13.230Z,13547
2018-06-30T07:26:43.287Z,8740
2018-06-30T07:27:13.282Z,10400
2018-06-30T07:27:43.344Z,9503
2018-06-30T07:28:13.386Z,8953
2018-06-30T07:28:43.398Z,11947
2018-06-30T07:29:13.532Z,13210
2018-06-30T07:29:43.427Z,10153
2018-06-30T07:30:13.473Z,14767
2018-06-30T07:30:43.556Z,16320
2018-06-30T07:31:13.577Z,13633
2018-06-30T07:31:43.573Z,10350
2018-06-30T07:32:13.645Z,11263
2018-06-30T07:32:43.628Z,9663
2018-06-30T07:33:13.674Z,8813
2018-06-30T07:33:43.691Z,8690
2018-06-30T07:34:13.706Z,10050
2018-06-30T07:34:43.746Z,9977
2018-06-30T07:35:13.772Z,11817
2018-06-30T07:35:43.803Z,12327
2018-06-30T07:36:13.858Z,14357
2018-06-30T07:36:43.952Z,13140
2018-06-30T07:37:13.952Z,12360
2018-06-30T07:37:43.969Z,13347
2018-06-30T07:38:13.981Z,9920
2018-06-30T07:38:43.992Z,15093
2018-06-30T07:39:14.019Z,14080
2018-06-30T07:39:44.065Z,10660
2018-06-30T07:40:14.072Z,20807
2018-06-30T07:40:44.107Z,16590
2018-06-30T07:41:14.134Z,26843
2018-06-30T07:41:44.225Z,15357
2018-06-30T07:42:14.245Z,14777
2018-06-30T07:42:44.274Z,13433
2018-06-30T07:43:14.460Z,14160
2018-06-30T07:43:44.337Z,18870
2018-06-30T07:44:14.411Z,27367
2018-06-30T07:44:44.375Z,57800
2018-06-30T07:45:14.414Z,39223
2018-06-30T07:45:44.435Z,16387
2018-06-30T07:46:14.468Z,23847
2018-06-30T07:46:44.571Z,51983
2018-06-30T07:47:14.528Z,59163
2018-06-30T07:47:44.575Z,35600
2018-06-30T07:48:14.689Z,36780
2018-06-30T07:48:44.606Z,66777
2018-06-30T07:49:14.672Z,32307
2018-06-30T07:49:44.718Z,71547
2018-06-30T07:50:14.745Z,107763
2018-06-30T07:50:44.740Z,30773
2018-06-30T07:51:14.764Z,126977
2018-06-30T07:51:44.819Z,86363
2018-06-30T07:52:14.818Z,104497
2018-06-30T07:52:44.856Z,127683
2018-06-30T07:53:14.932Z,119413
2018-06-30T07:53:44.931Z,112220
2018-06-30T07:54:14.955Z,65203
2018-06-30T07:54:44.990Z,79157
2018-06-30T07:55:15.009Z,52903
2018-06-30T07:55:45.038Z,81007
2018-06-30T07:56:15.187Z,69657
2018-06-30T07:56:45.122Z,74110
2018-06-30T07:57:15.127Z,66180
2018-06-30T07:57:45.153Z,129863
2018-06-30T07:58:15.308Z,27093
2018-06-30T07:58:45.216Z,132957
2018-06-30T07:59:15.349Z,126837
2018-06-30T07:59:45.318Z,95827
2018-06-30T08:00:15.308Z,134407
2018-06-30T08:00:45.395Z,133620
2018-06-30T08:01:15.451Z,134557
2018-06-30T08:01:45.429Z,135460
2018-06-30T08:02:15.504Z,135803
2018-06-30T08:02:45.549Z,136310
2018-06-30T08:03:15.560Z,136600
2018-06-30T08:03:45.645Z,137267
2018-06-30T08:04:15.588Z,137877
2018-06-30T08:04:45.624Z,129610
2018-06-30T08:05:15.641Z,137790
2018-06-30T08:05:45.711Z,132640
2018-06-30T08:06:15.717Z,135393
2018-06-30T08:06:45.748Z,139253
2018-06-30T08:07:15.838Z,139310
2018-06-30T08:07:45.769Z,139193
2018-06-30T08:08:15.939Z,139210
2018-06-30T08:08:45.890Z,139653
2018-06-30T08:09:15.918Z,139967
2018-06-30T08:09:45.896Z,140157
2018-06-30T08:10:15.971Z,140150
2018-06-30T08:10:46.011Z,140357
2018-06-30T08:11:16.042Z,140480
2018-06-30T08:11:46.068Z,140850
2018-06-30T08:12:16.092Z,141017
2018-06-30T08:12:46.155Z,141173
2018-06-30T08:13:16.220Z,141583
2018-06-30T08:13:46.251Z,142070
2018-06-30T08:14:16.204Z,126230
2018-06-30T08:14:46.248Z,143380
2018-06-30T08:15:16.238Z,143873
2018-06-30T08:15:46.305Z,143967
2018-06-30T08:16:16.337Z,144123
2018-06-30T08:16:46.373Z,144217
2018-06-30T08:17:16.447Z,144393
2018-06-30T08:17:46.428Z,144840
2018-06-30T08:18:16.501Z,145467
2018-06-30T08:18:46.492Z,146063
2018-06-30T08:19:16.538Z,146273
2018-06-30T08:19:46.525Z,146977
2018-06-30T08:20:16.580Z,147670
2018-06-30T08:20:46.597Z,148223
2018-06-30T08:21:16.726Z,148700
2018-06-30T08:21:46.650Z,149237
2018-06-30T08:22:16.732Z,149127
2018-06-30T08:22:46.709Z,149490
2018-06-30T08:23:16.800Z,149573
2018-06-30T08:23:47.545Z,149853
2018-06-30T08:24:16.808Z,149730
2018-06-30T08:24:46.844Z,149763
2018-06-30T08:25:16.904Z,149907
2018-06-30T08:25:46.905Z,149847
2018-06-30T08:26:16.976Z,149837
2018-06-30T08:26:46.969Z,150170
2018-06-30T08:27:16.980Z,150387
2018-06-30T08:27:47.008Z,149947
2018-06-30T08:28:17.314Z,149910
2018-06-30T08:28:47.068Z,149833
2018-06-30T08:29:17.113Z,149723
2018-06-30T08:29:47.134Z,149740
2018-06-30T08:30:17.176Z,149683
2018-06-30T08:30:47.258Z,149787
2018-06-30T08:31:17.226Z,149577
2018-06-30T08:31:47.299Z,149763
2018-06-30T08:32:17.285Z,149767
2018-06-30T08:32:47.337Z,149640
2018-06-30T08:33:17.425Z,149620
2018-06-30T08:33:47.434Z,149203
2018-06-30T08:34:17.447Z,149283
2018-06-30T08:34:47.500Z,149307
2018-06-30T08:35:17.533Z,149287
2018-06-30T08:35:47.553Z,148810
2018-06-30T08:36:17.568Z,148590
2018-06-30T08:36:47.561Z,148400
2018-06-30T08:37:17.629Z,148177
2018-06-30T08:37:47.644Z,147773
2018-06-30T08:38:17.723Z,147457
2018-06-30T08:38:47.711Z,147140
2018-06-30T08:39:17.727Z,146603
2018-06-30T08:39:47.761Z,146443
2018-06-30T08:40:17.782Z,146533
2018-06-30T08:40:47.820Z,146567
2018-06-30T08:41:17.902Z,146777
2018-06-30T08:41:47.891Z,146673
2018-06-30T08:42:17.909Z,146643
2018-06-30T08:42:47.975Z,146663
2018-06-30T08:43:17.994Z,146653
2018-06-30T08:43:47.997Z,146567
2018-06-30T08:44:18.025Z,145907
2018-06-30T08:44:48.066Z,146377
2018-06-30T08:45:18.167Z,146670
2018-06-30T08:45:48.147Z,146443
2018-06-30T08:46:18.199Z,146187
2018-06-30T08:46:48.193Z,146100
2018-06-30T08:47:18.213Z,146037
2018-06-30T08:47:48.397Z,145860
2018-06-30T08:48:18.375Z,145420
2018-06-30T08:48:48.339Z,145190
2018-06-30T08:49:18.386Z,144590
2018-06-30T08:49:48.381Z,144753
2018-06-30T08:50:18.429Z,144247
2018-06-30T08:50:48.475Z,144307
2018-06-30T08:51:18.480Z,144130
2018-06-30T08:51:48.576Z,143967
2018-06-30T08:52:18.621Z,143940
2018-06-30T08:52:48.608Z,143820
2018-06-30T08:53:18.692Z,143647
2018-06-30T08:53:48.697Z,143747
2018-06-30T08:54:18.670Z,143840
2018-06-30T08:54:48.766Z,143953
2018-06-30T08:55:18.757Z,144037
2018-06-30T08:55:48.766Z,144157
2018-06-30T08:56:18.827Z,144493
2018-06-30T08:56:48.845Z,144703
2018-06-30T08:57:18.872Z,144907
2018-06-30T08:57:48.877Z,145153
2018-06-30T08:58:18.968Z,145623
2018-06-30T08:58:48.957Z,146177
2018-06-30T08:59:18.988Z,146500
2018-06-30T08:59:49.035Z,146903
2018-06-30T09:00:19.062Z,147517
2018-06-30T09:00:49.178Z,147947
2018-06-30T09:01:19.117Z,148097
2018-06-30T09:01:49.121Z,148417
2018-06-30T09:02:19.180Z,148270